sensor_id;sensor_type;location;lat;lon;timestamp;temperature;humidity
18753;DHT22;9505;50.882;5.350;2023-06-26T00:01:31;20.90;99.90
18753;DHT22;9505;50.882;5.350;2023-06-26T00:04:00;21.00;99.90
18753;DHT22;9505;50.882;5.350;2023-06-26T00:06:26;21.00;99.90
18753;DHT22;9505;50.882;5.350;2023-06-26T00:08:53;21.10;99.90
18753;DHT22;9505;50.882;5.350;2023-06-26T00:11:20;21.20;99.90
18753;DHT22;9505;50.882;5.350;2023-06-26T00:13:46;21.30;99.90
18753;DHT22;9505;50.882;5.350;2023-06-26T00:16:12;21.30;99.90
18753;DHT22;9505;50.882;5.350;2023-06-26T00:18:37;21.40;99.90
18753;DHT22;9505;50.882;5.350;2023-06-26T00:21:03;21.50;99.90
18753;DHT22;9505;50.882;5.350;2023-06-26T00:23:28;21.50;99.90
18753;DHT22;9505;50.882;5.350;2023-06-26T00:25:56;21.50;99.90
18753;DHT22;9505;50.882;5.350;2023-06-26T00:28:22;21.60;99.90
18753;DHT22;9505;50.882;5.350;2023-06-26T00:30:47;21.60;99.90
18753;DHT22;9505;50.882;5.350;2023-06-26T00:33:13;21.60;99.90
18753;DHT22;9505;50.882;5.350;2023-06-26T00:35:38;21.60;99.90
18753;DHT22;9505;50.882;5.350;2023-06-26T00:38:04;21.70;99.90
18753;DHT22;9505;50.882;5.350;2023-06-26T00:40:29;21.80;99.90
18753;DHT22;9505;50.882;5.350;2023-06-26T00:42:55;21.80;99.90
18753;DHT22;9505;50.882;5.350;2023-06-26T00:45:21;21.80;99.90
18753;DHT22;9505;50.882;5.350;2023-06-26T00:47:47;21.80;99.90
18753;DHT22;9505;50.882;5.350;2023-06-26T00:50:12;21.80;99.90
18753;DHT22;9505;50.882;5.350;2023-06-26T00:52:41;21.80;99.90
18753;DHT22;9505;50.882;5.350;2023-06-26T00:55:07;21.80;99.90
18753;DHT22;9505;50.882;5.350;2023-06-26T00:57:33;21.70;99.90
18753;DHT22;9505;50.882;5.350;2023-06-26T01:00:00;21.60;99.90
18753;DHT22;9505;50.882;5.350;2023-06-26T01:02:26;21.60;99.90
18753;DHT22;9505;50.882;5.350;2023-06-26T01:04:54;21.50;99.90
18753;DHT22;9505;50.882;5.350;2023-06-26T01:07:20;21.60;99.90
18753;DHT22;9505;50.882;5.350;2023-06-26T01:09:47;21.50;99.90
18753;DHT22;9505;50.882;5.350;2023-06-26T01:12:13;21.50;99.90
18753;DHT22;9505;50.882;5.350;2023-06-26T01:14:39;21.40;99.90
18753;DHT22;9505;50.882;5.350;2023-06-26T01:17:05;21.40;99.90
18753;DHT22;9505;50.882;5.350;2023-06-26T01:19:33;21.30;99.90
18753;DHT22;9505;50.882;5.350;2023-06-26T01:27:45;21.20;99.90
18753;DHT22;9505;50.882;5.350;2023-06-26T01:30:12;21.20;99.90
18753;DHT22;9505;50.882;5.350;2023-06-26T01:32:39;21.20;99.90
18753;DHT22;9505;50.882;5.350;2023-06-26T01:35:06;21.10;99.90
18753;DHT22;9505;50.882;5.350;2023-06-26T01:37:33;21.10;99.90
18753;DHT22;9505;50.882;5.350;2023-06-26T01:39:58;21.00;99.90
18753;DHT22;9505;50.882;5.350;2023-06-26T01:42:24;21.00;99.90
18753;DHT22;9505;50.882;5.350;2023-06-26T01:44:50;21.00;99.90
18753;DHT22;9505;50.882;5.350;2023-06-26T01:47:22;20.90;99.90
18753;DHT22;9505;50.882;5.350;2023-06-26T01:50:00;21.00;99.90
18753;DHT22;9505;50.882;5.350;2023-06-26T01:52:34;21.00;99.90
18753;DHT22;9505;50.882;5.350;2023-06-26T01:55:07;21.00;99.90
18753;DHT22;9505;50.882;5.350;2023-06-26T01:57:35;21.10;99.90
18753;DHT22;9505;50.882;5.350;2023-06-26T02:00:02;21.00;99.90
18753;DHT22;9505;50.882;5.350;2023-06-26T02:02:29;21.00;99.90
18753;DHT22;9505;50.882;5.350;2023-06-26T02:04:55;20.90;99.90
18753;DHT22;9505;50.882;5.350;2023-06-26T02:07:20;21.00;99.90
18753;DHT22;9505;50.882;5.350;2023-06-26T02:09:46;21.00;99.90
18753;DHT22;9505;50.882;5.350;2023-06-26T02:12:12;20.90;99.90
18753;DHT22;9505;50.882;5.350;2023-06-26T02:14:37;21.00;99.90
18753;DHT22;9505;50.882;5.350;2023-06-26T02:17:04;20.90;99.90
18753;DHT22;9505;50.882;5.350;2023-06-26T02:19:30;20.90;99.90
18753;DHT22;9505;50.882;5.350;2023-06-26T02:21:55;20.90;99.90
18753;DHT22;9505;50.882;5.350;2023-06-26T02:24:21;20.90;99.90
18753;DHT22;9505;50.882;5.350;2023-06-26T02:26:47;20.80;99.90
18753;DHT22;9505;50.882;5.350;2023-06-26T02:29:14;20.80;99.90
18753;DHT22;9505;50.882;5.350;2023-06-26T02:31:40;20.70;99.90
18753;DHT22;9505;50.882;5.350;2023-06-26T02:34:06;20.60;99.90
18753;DHT22;9505;50.882;5.350;2023-06-26T02:36:31;20.60;99.90
18753;DHT22;9505;50.882;5.350;2023-06-26T02:38:57;20.50;99.90
18753;DHT22;9505;50.882;5.350;2023-06-26T02:41:23;20.40;99.90
18753;DHT22;9505;50.882;5.350;2023-06-26T02:43:48;20.40;99.90
18753;DHT22;9505;50.882;5.350;2023-06-26T02:46:14;20.30;99.90
18753;DHT22;9505;50.882;5.350;2023-06-26T02:48:39;20.40;99.90
18753;DHT22;9505;50.882;5.350;2023-06-26T02:51:07;20.40;99.90
18753;DHT22;9505;50.882;5.350;2023-06-26T02:53:32;20.40;99.90
18753;DHT22;9505;50.882;5.350;2023-06-26T02:55:58;20.30;99.90
18753;DHT22;9505;50.882;5.350;2023-06-26T02:58:23;20.30;99.90
18753;DHT22;9505;50.882;5.350;2023-06-26T03:00:49;20.40;99.90
18753;DHT22;9505;50.882;5.350;2023-06-26T03:03:15;20.20;99.90
18753;DHT22;9505;50.882;5.350;2023-06-26T03:05:40;20.30;99.90
18753;DHT22;9505;50.882;5.350;2023-06-26T03:08:06;20.30;99.90
18753;DHT22;9505;50.882;5.350;2023-06-26T03:10:31;20.30;99.90
18753;DHT22;9505;50.882;5.350;2023-06-26T03:12:57;20.20;99.90
18753;DHT22;9505;50.882;5.350;2023-06-26T03:15:23;20.20;99.90
18753;DHT22;9505;50.882;5.350;2023-06-26T03:17:48;20.20;99.90
18753;DHT22;9505;50.882;5.350;2023-06-26T03:20:14;20.10;99.90
18753;DHT22;9505;50.882;5.350;2023-06-26T03:22:40;20.10;99.90
18753;DHT22;9505;50.882;5.350;2023-06-26T03:25:06;20.00;99.90
18753;DHT22;9505;50.882;5.350;2023-06-26T03:27:32;20.00;99.90
18753;DHT22;9505;50.882;5.350;2023-06-26T03:29:57;19.80;99.90
18753;DHT22;9505;50.882;5.350;2023-06-26T03:32:23;19.80;99.90
18753;DHT22;9505;50.882;5.350;2023-06-26T03:34:49;19.80;99.90
18753;DHT22;9505;50.882;5.350;2023-06-26T03:37:14;19.80;99.90
18753;DHT22;9505;50.882;5.350;2023-06-26T03:39:40;19.70;99.90
18753;DHT22;9505;50.882;5.350;2023-06-26T03:42:06;19.60;99.90
18753;DHT22;9505;50.882;5.350;2023-06-26T03:44:32;19.50;99.90
18753;DHT22;9505;50.882;5.350;2023-06-26T03:46:58;19.50;99.90
18753;DHT22;9505;50.882;5.350;2023-06-26T03:49:23;19.40;99.90
18753;DHT22;9505;50.882;5.350;2023-06-26T03:51:49;19.40;99.90
18753;DHT22;9505;50.882;5.350;2023-06-26T03:54:15;19.40;99.90
18753;DHT22;9505;50.882;5.350;2023-06-26T03:56:40;19.30;99.90
18753;DHT22;9505;50.882;5.350;2023-06-26T03:59:06;19.40;99.90
18753;DHT22;9505;50.882;5.350;2023-06-26T04:01:31;19.30;99.90
18753;DHT22;9505;50.882;5.350;2023-06-26T04:03:57;19.30;99.90
18753;DHT22;9505;50.882;5.350;2023-06-26T04:06:23;19.40;99.90
18753;DHT22;9505;50.882;5.350;2023-06-26T04:08:48;19.50;99.90
18753;DHT22;9505;50.882;5.350;2023-06-26T04:11:14;19.30;99.90
18753;DHT22;9505;50.882;5.350;2023-06-26T04:13:40;19.30;99.90
18753;DHT22;9505;50.882;5.350;2023-06-26T04:16:05;19.20;99.90
18753;DHT22;9505;50.882;5.350;2023-06-26T04:18:32;19.30;99.90
18753;DHT22;9505;50.882;5.350;2023-06-26T04:23:31;19.50;99.90
18753;DHT22;9505;50.882;5.350;2023-06-26T04:25:56;19.40;99.90
18753;DHT22;9505;50.882;5.350;2023-06-26T04:28:23;19.30;99.90
18753;DHT22;9505;50.882;5.350;2023-06-26T04:30:49;19.20;99.90
18753;DHT22;9505;50.882;5.350;2023-06-26T04:33:15;19.30;99.90
18753;DHT22;9505;50.882;5.350;2023-06-26T04:35:41;19.40;99.90
18753;DHT22;9505;50.882;5.350;2023-06-26T04:38:06;19.40;99.90
18753;DHT22;9505;50.882;5.350;2023-06-26T04:40:32;19.40;99.90
18753;DHT22;9505;50.882;5.350;2023-06-26T04:42:57;19.50;99.90
18753;DHT22;9505;50.882;5.350;2023-06-26T04:45:23;19.60;99.90
18753;DHT22;9505;50.882;5.350;2023-06-26T04:47:48;19.70;99.90
18753;DHT22;9505;50.882;5.350;2023-06-26T04:50:14;19.70;99.90
18753;DHT22;9505;50.882;5.350;2023-06-26T04:52:40;19.60;99.90
18753;DHT22;9505;50.882;5.350;2023-06-26T04:55:05;19.70;99.90
18753;DHT22;9505;50.882;5.350;2023-06-26T04:57:31;19.60;99.90
18753;DHT22;9505;50.882;5.350;2023-06-26T04:59:56;19.60;99.90
18753;DHT22;9505;50.882;5.350;2023-06-26T05:02:22;19.60;99.90
18753;DHT22;9505;50.882;5.350;2023-06-26T05:04:47;19.60;99.90
18753;DHT22;9505;50.882;5.350;2023-06-26T05:07:13;19.50;99.90
18753;DHT22;9505;50.882;5.350;2023-06-26T05:09:39;19.50;99.90
18753;DHT22;9505;50.882;5.350;2023-06-26T05:12:05;19.50;99.90
18753;DHT22;9505;50.882;5.350;2023-06-26T05:14:30;19.50;99.90
18753;DHT22;9505;50.882;5.350;2023-06-26T05:16:56;19.70;99.90
18753;DHT22;9505;50.882;5.350;2023-06-26T05:19:22;19.70;99.90
18753;DHT22;9505;50.882;5.350;2023-06-26T05:21:48;19.80;99.90
18753;DHT22;9505;50.882;5.350;2023-06-26T05:24:15;19.90;99.90
18753;DHT22;9505;50.882;5.350;2023-06-26T05:26:41;20.10;99.90
18753;DHT22;9505;50.882;5.350;2023-06-26T05:29:07;20.20;99.90
18753;DHT22;9505;50.882;5.350;2023-06-26T05:31:33;20.20;99.90
18753;DHT22;9505;50.882;5.350;2023-06-26T05:34:03;20.20;99.90
18753;DHT22;9505;50.882;5.350;2023-06-26T05:36:30;20.30;99.90
18753;DHT22;9505;50.882;5.350;2023-06-26T05:38:58;20.30;99.90
18753;DHT22;9505;50.882;5.350;2023-06-26T05:41:24;21.40;99.90
18753;DHT22;9505;50.882;5.350;2023-06-26T05:43:50;23.20;99.90
18753;DHT22;9505;50.882;5.350;2023-06-26T05:46:15;24.40;99.90
18753;DHT22;9505;50.882;5.350;2023-06-26T05:48:41;25.70;99.90
18753;DHT22;9505;50.882;5.350;2023-06-26T05:51:07;25.70;99.90
18753;DHT22;9505;50.882;5.350;2023-06-26T05:53:33;25.20;99.90
18753;DHT22;9505;50.882;5.350;2023-06-26T05:55:59;24.50;99.90
18753;DHT22;9505;50.882;5.350;2023-06-26T05:58:26;23.90;99.90
18753;DHT22;9505;50.882;5.350;2023-06-26T06:00:55;23.20;99.90
18753;DHT22;9505;50.882;5.350;2023-06-26T06:03:21;22.70;99.90
18753;DHT22;9505;50.882;5.350;2023-06-26T06:05:46;22.00;99.90
18753;DHT22;9505;50.882;5.350;2023-06-26T06:08:12;21.30;99.90
18753;DHT22;9505;50.882;5.350;2023-06-26T06:10:38;20.90;99.90
18753;DHT22;9505;50.882;5.350;2023-06-26T06:13:03;20.90;99.90
18753;DHT22;9505;50.882;5.350;2023-06-26T06:15:29;21.60;99.90
18753;DHT22;9505;50.882;5.350;2023-06-26T06:17:54;22.60;99.90
18753;DHT22;9505;50.882;5.350;2023-06-26T06:20:20;23.60;99.90
18753;DHT22;9505;50.882;5.350;2023-06-26T06:22:46;25.10;99.90
18753;DHT22;9505;50.882;5.350;2023-06-26T06:25:14;24.40;99.90
18753;DHT22;9505;50.882;5.350;2023-06-26T06:27:40;24.30;99.90
18753;DHT22;9505;50.882;5.350;2023-06-26T06:30:06;23.60;99.90
18753;DHT22;9505;50.882;5.350;2023-06-26T06:32:33;22.90;99.90
18753;DHT22;9505;50.882;5.350;2023-06-26T06:34:58;23.70;99.90
18753;DHT22;9505;50.882;5.350;2023-06-26T06:37:24;24.60;99.90
18753;DHT22;9505;50.882;5.350;2023-06-26T06:39:50;24.10;99.90
18753;DHT22;9505;50.882;5.350;2023-06-26T06:42:15;24.50;99.90
18753;DHT22;9505;50.882;5.350;2023-06-26T06:44:41;24.70;99.90
18753;DHT22;9505;50.882;5.350;2023-06-26T06:47:06;25.70;99.90
18753;DHT22;9505;50.882;5.350;2023-06-26T06:49:32;25.90;99.90
18753;DHT22;9505;50.882;5.350;2023-06-26T06:51:57;25.70;99.90
18753;DHT22;9505;50.882;5.350;2023-06-26T06:54:26;26.20;99.90
18753;DHT22;9505;50.882;5.350;2023-06-26T06:56:52;27.00;99.90
18753;DHT22;9505;50.882;5.350;2023-06-26T06:59:18;27.40;99.90
18753;DHT22;9505;50.882;5.350;2023-06-26T07:01:44;25.50;99.90
18753;DHT22;9505;50.882;5.350;2023-06-26T07:04:09;25.30;99.90
18753;DHT22;9505;50.882;5.350;2023-06-26T07:06:35;25.60;99.90
18753;DHT22;9505;50.882;5.350;2023-06-26T07:09:00;25.30;99.90
18753;DHT22;9505;50.882;5.350;2023-06-26T07:11:26;24.30;99.90
18753;DHT22;9505;50.882;5.350;2023-06-26T07:13:53;23.80;99.90
18753;DHT22;9505;50.882;5.350;2023-06-26T07:16:18;24.80;99.90
18753;DHT22;9505;50.882;5.350;2023-06-26T07:18:44;25.80;99.90
18753;DHT22;9505;50.882;5.350;2023-06-26T07:21:10;26.20;99.90
18753;DHT22;9505;50.882;5.350;2023-06-26T07:23:35;25.80;99.90
18753;DHT22;9505;50.882;5.350;2023-06-26T07:26:01;27.00;99.90
18753;DHT22;9505;50.882;5.350;2023-06-26T07:28:26;25.70;99.90
18753;DHT22;9505;50.882;5.350;2023-06-26T07:30:53;25.00;99.90
18753;DHT22;9505;50.882;5.350;2023-06-26T07:33:18;24.50;99.90
18753;DHT22;9505;50.882;5.350;2023-06-26T07:35:44;24.10;99.90
18753;DHT22;9505;50.882;5.350;2023-06-26T07:38:09;24.00;99.90
18753;DHT22;9505;50.882;5.350;2023-06-26T07:40:35;24.70;99.90
18753;DHT22;9505;50.882;5.350;2023-06-26T07:43:01;24.90;99.90
18753;DHT22;9505;50.882;5.350;2023-06-26T07:45:26;26.50;99.90
18753;DHT22;9505;50.882;5.350;2023-06-26T07:47:52;27.60;99.90
18753;DHT22;9505;50.882;5.350;2023-06-26T07:50:17;26.40;99.90
18753;DHT22;9505;50.882;5.350;2023-06-26T07:52:47;26.80;99.90
18753;DHT22;9505;50.882;5.350;2023-06-26T07:55:13;26.60;99.90
18753;DHT22;9505;50.882;5.350;2023-06-26T07:57:38;26.20;99.90
18753;DHT22;9505;50.882;5.350;2023-06-26T08:00:05;26.90;99.90
18753;DHT22;9505;50.882;5.350;2023-06-26T08:02:32;25.80;99.90
18753;DHT22;9505;50.882;5.350;2023-06-26T08:04:57;25.30;99.90
18753;DHT22;9505;50.882;5.350;2023-06-26T08:07:23;25.20;99.90
18753;DHT22;9505;50.882;5.350;2023-06-26T08:09:48;25.50;99.90
18753;DHT22;9505;50.882;5.350;2023-06-26T08:12:14;24.50;99.90
18753;DHT22;9505;50.882;5.350;2023-06-26T08:14:40;24.20;99.90
18753;DHT22;9505;50.882;5.350;2023-06-26T08:17:05;23.80;99.90
18753;DHT22;9505;50.882;5.350;2023-06-26T08:19:31;23.90;99.90
18753;DHT22;9505;50.882;5.350;2023-06-26T08:21:56;24.00;99.90
18753;DHT22;9505;50.882;5.350;2023-06-26T08:24:22;23.50;99.90
18753;DHT22;9505;50.882;5.350;2023-06-26T08:26:48;23.30;99.90
18753;DHT22;9505;50.882;5.350;2023-06-26T08:29:14;23.30;99.90
18753;DHT22;9505;50.882;5.350;2023-06-26T08:31:41;23.60;99.90
18753;DHT22;9505;50.882;5.350;2023-06-26T08:34:07;23.10;99.90
18753;DHT22;9505;50.882;5.350;2023-06-26T08:36:33;23.10;99.90
18753;DHT22;9505;50.882;5.350;2023-06-26T08:38:59;23.10;99.90
18753;DHT22;9505;50.882;5.350;2023-06-26T08:41:25;22.60;99.90
18753;DHT22;9505;50.882;5.350;2023-06-26T08:43:51;22.80;99.90
18753;DHT22;9505;50.882;5.350;2023-06-26T08:46:18;23.60;99.90
18753;DHT22;9505;50.882;5.350;2023-06-26T08:48:49;23.20;99.90
18753;DHT22;9505;50.882;5.350;2023-06-26T08:51:17;23.10;99.90
18753;DHT22;9505;50.882;5.350;2023-06-26T08:53:56;23.40;99.90
18753;DHT22;9505;50.882;5.350;2023-06-26T08:56:24;23.20;99.90
18753;DHT22;9505;50.882;5.350;2023-06-26T08:58:51;23.50;99.90
18753;DHT22;9505;50.882;5.350;2023-06-26T09:01:17;23.60;99.90
18753;DHT22;9505;50.882;5.350;2023-06-26T09:03:44;23.80;99.90
18753;DHT22;9505;50.882;5.350;2023-06-26T09:06:10;23.90;99.90
18753;DHT22;9505;50.882;5.350;2023-06-26T09:08:36;23.60;99.90
18753;DHT22;9505;50.882;5.350;2023-06-26T09:11:01;23.50;99.90
18753;DHT22;9505;50.882;5.350;2023-06-26T09:13:30;23.80;99.90
18753;DHT22;9505;50.882;5.350;2023-06-26T09:15:56;24.20;99.90
18753;DHT22;9505;50.882;5.350;2023-06-26T09:18:22;24.60;99.90
18753;DHT22;9505;50.882;5.350;2023-06-26T09:20:50;24.20;99.90
18753;DHT22;9505;50.882;5.350;2023-06-26T09:23:16;24.30;99.90
18753;DHT22;9505;50.882;5.350;2023-06-26T09:25:42;24.40;99.90
18753;DHT22;9505;50.882;5.350;2023-06-26T09:28:10;24.30;99.90
18753;DHT22;9505;50.882;5.350;2023-06-26T09:30:36;23.80;99.90
18753;DHT22;9505;50.882;5.350;2023-06-26T09:33:18;23.70;99.90
18753;DHT22;9505;50.882;5.350;2023-06-26T09:35:45;24.30;99.90
18753;DHT22;9505;50.882;5.350;2023-06-26T09:38:12;24.20;99.90
18753;DHT22;9505;50.882;5.350;2023-06-26T09:40:38;23.90;99.90
18753;DHT22;9505;50.882;5.350;2023-06-26T09:43:13;23.90;99.90
18753;DHT22;9505;50.882;5.350;2023-06-26T09:45:40;24.20;99.90
18753;DHT22;9505;50.882;5.350;2023-06-26T09:48:07;24.60;99.90
18753;DHT22;9505;50.882;5.350;2023-06-26T09:50:37;24.40;99.90
18753;DHT22;9505;50.882;5.350;2023-06-26T09:53:13;24.30;99.90
18753;DHT22;9505;50.882;5.350;2023-06-26T09:55:39;24.20;99.90
18753;DHT22;9505;50.882;5.350;2023-06-26T09:58:06;24.50;99.90
18753;DHT22;9505;50.882;5.350;2023-06-26T10:00:33;24.70;99.90
18753;DHT22;9505;50.882;5.350;2023-06-26T10:02:59;24.90;99.90
18753;DHT22;9505;50.882;5.350;2023-06-26T10:05:26;24.70;99.90
18753;DHT22;9505;50.882;5.350;2023-06-26T10:07:53;24.30;99.90
18753;DHT22;9505;50.882;5.350;2023-06-26T10:10:19;23.70;99.90
18753;DHT22;9505;50.882;5.350;2023-06-26T10:12:48;23.80;99.90
18753;DHT22;9505;50.882;5.350;2023-06-26T10:15:15;24.00;99.90
18753;DHT22;9505;50.882;5.350;2023-06-26T10:17:43;24.40;99.90
18753;DHT22;9505;50.882;5.350;2023-06-26T10:20:10;24.60;99.90
18753;DHT22;9505;50.882;5.350;2023-06-26T10:22:45;24.70;99.90
18753;DHT22;9505;50.882;5.350;2023-06-26T10:25:14;25.10;99.90
18753;DHT22;9505;50.882;5.350;2023-06-26T10:27:44;25.10;99.90
18753;DHT22;9505;50.882;5.350;2023-06-26T10:30:17;24.70;99.90
18753;DHT22;9505;50.882;5.350;2023-06-26T10:32:45;23.80;99.90
18753;DHT22;9505;50.882;5.350;2023-06-26T10:35:12;24.10;99.90
18753;DHT22;9505;50.882;5.350;2023-06-26T10:37:48;24.50;99.90
18753;DHT22;9505;50.882;5.350;2023-06-26T10:40:21;25.30;99.90
18753;DHT22;9505;50.882;5.350;2023-06-26T10:42:47;25.80;99.90
18753;DHT22;9505;50.882;5.350;2023-06-26T10:45:23;25.40;99.90
18753;DHT22;9505;50.882;5.350;2023-06-26T10:47:53;25.20;99.90
18753;DHT22;9505;50.882;5.350;2023-06-26T10:50:19;24.90;99.90
18753;DHT22;9505;50.882;5.350;2023-06-26T10:52:46;24.00;99.90
18753;DHT22;9505;50.882;5.350;2023-06-26T10:55:31;24.10;99.90
18753;DHT22;9505;50.882;5.350;2023-06-26T10:57:57;24.40;99.90
18753;DHT22;9505;50.882;5.350;2023-06-26T11:00:22;24.70;99.90
18753;DHT22;9505;50.882;5.350;2023-06-26T11:02:51;24.80;99.90
18753;DHT22;9505;50.882;5.350;2023-06-26T11:05:27;24.40;99.90
18753;DHT22;9505;50.882;5.350;2023-06-26T11:08:06;24.10;99.90
18753;DHT22;9505;50.882;5.350;2023-06-26T11:10:50;24.30;99.90
18753;DHT22;9505;50.882;5.350;2023-06-26T11:13:17;24.70;99.90
18753;DHT22;9505;50.882;5.350;2023-06-26T11:15:43;25.10;99.90
18753;DHT22;9505;50.882;5.350;2023-06-26T11:18:12;25.50;99.90
18753;DHT22;9505;50.882;5.350;2023-06-26T11:20:38;25.50;99.90
18753;DHT22;9505;50.882;5.350;2023-06-26T11:23:04;25.00;99.90
18753;DHT22;9505;50.882;5.350;2023-06-26T11:25:37;25.00;99.90
18753;DHT22;9505;50.882;5.350;2023-06-26T11:28:04;25.20;99.90
18753;DHT22;9505;50.882;5.350;2023-06-26T11:30:30;24.70;99.90
18753;DHT22;9505;50.882;5.350;2023-06-26T11:33:06;24.40;99.90
18753;DHT22;9505;50.882;5.350;2023-06-26T11:35:32;24.00;99.90
18753;DHT22;9505;50.882;5.350;2023-06-26T11:38:02;23.80;99.90
18753;DHT22;9505;50.882;5.350;2023-06-26T11:40:36;23.90;99.90
18753;DHT22;9505;50.882;5.350;2023-06-26T11:43:03;23.80;99.90
18753;DHT22;9505;50.882;5.350;2023-06-26T11:45:29;24.00;99.90
18753;DHT22;9505;50.882;5.350;2023-06-26T11:47:56;24.00;99.90
18753;DHT22;9505;50.882;5.350;2023-06-26T11:50:23;24.00;99.90
18753;DHT22;9505;50.882;5.350;2023-06-26T11:52:55;23.80;99.90
18753;DHT22;9505;50.882;5.350;2023-06-26T11:55:25;24.00;99.90
18753;DHT22;9505;50.882;5.350;2023-06-26T11:57:54;24.30;99.90
18753;DHT22;9505;50.882;5.350;2023-06-26T12:00:20;24.50;99.90
18753;DHT22;9505;50.882;5.350;2023-06-26T12:02:46;24.90;99.90
18753;DHT22;9505;50.882;5.350;2023-06-26T12:05:16;24.80;99.20
18753;DHT22;9505;50.882;5.350;2023-06-26T12:07:43;24.80;97.60
18753;DHT22;9505;50.882;5.350;2023-06-26T12:10:10;25.20;99.00
18753;DHT22;9505;50.882;5.350;2023-06-26T12:12:37;25.20;98.80
18753;DHT22;9505;50.882;5.350;2023-06-26T12:15:04;24.90;99.30
18753;DHT22;9505;50.882;5.350;2023-06-26T12:17:30;24.90;97.50
18753;DHT22;9505;50.882;5.350;2023-06-26T12:19:56;24.70;98.30
18753;DHT22;9505;50.882;5.350;2023-06-26T12:22:22;25.20;97.50
18753;DHT22;9505;50.882;5.350;2023-06-26T12:24:48;25.50;95.50
18753;DHT22;9505;50.882;5.350;2023-06-26T12:27:15;25.70;96.30
18753;DHT22;9505;50.882;5.350;2023-06-26T12:30:02;26.20;95.60
18753;DHT22;9505;50.882;5.350;2023-06-26T12:32:28;25.50;96.40
18753;DHT22;9505;50.882;5.350;2023-06-26T12:34:56;25.70;97.30
18753;DHT22;9505;50.882;5.350;2023-06-26T12:37:22;26.10;95.60
18753;DHT22;9505;50.882;5.350;2023-06-26T12:39:56;26.10;95.60
18753;DHT22;9505;50.882;5.350;2023-06-26T12:42:28;25.60;95.80
18753;DHT22;9505;50.882;5.350;2023-06-26T12:44:54;26.00;95.50
18753;DHT22;9505;50.882;5.350;2023-06-26T12:47:27;26.30;95.80
18753;DHT22;9505;50.882;5.350;2023-06-26T12:49:53;26.40;95.10
18753;DHT22;9505;50.882;5.350;2023-06-26T12:52:20;25.20;95.30
18753;DHT22;9505;50.882;5.350;2023-06-26T12:54:47;24.70;95.90
18753;DHT22;9505;50.882;5.350;2023-06-26T12:57:16;24.60;96.30
18753;DHT22;9505;50.882;5.350;2023-06-26T12:59:42;24.90;96.70
18753;DHT22;9505;50.882;5.350;2023-06-26T13:02:08;25.00;95.70
18753;DHT22;9505;50.882;5.350;2023-06-26T13:04:34;24.60;96.40
18753;DHT22;9505;50.882;5.350;2023-06-26T13:07:00;24.40;95.20
18753;DHT22;9505;50.882;5.350;2023-06-26T13:09:31;24.20;96.10
18753;DHT22;9505;50.882;5.350;2023-06-26T13:11:58;24.20;95.60
18753;DHT22;9505;50.882;5.350;2023-06-26T13:14:24;24.60;95.50
18753;DHT22;9505;50.882;5.350;2023-06-26T13:16:50;25.30;94.90
18753;DHT22;9505;50.882;5.350;2023-06-26T13:19:15;25.60;94.70
18753;DHT22;9505;50.882;5.350;2023-06-26T13:21:41;25.90;94.10
18753;DHT22;9505;50.882;5.350;2023-06-26T13:24:07;26.00;94.40
18753;DHT22;9505;50.882;5.350;2023-06-26T13:26:34;26.00;94.80
18753;DHT22;9505;50.882;5.350;2023-06-26T13:28:59;26.10;94.50
18753;DHT22;9505;50.882;5.350;2023-06-26T13:31:25;25.90;94.70
18753;DHT22;9505;50.882;5.350;2023-06-26T13:33:51;25.80;95.10
18753;DHT22;9505;50.882;5.350;2023-06-26T13:36:20;25.80;94.70
18753;DHT22;9505;50.882;5.350;2023-06-26T13:38:46;25.50;95.10
18753;DHT22;9505;50.882;5.350;2023-06-26T13:41:15;25.40;95.40
18753;DHT22;9505;50.882;5.350;2023-06-26T13:43:41;25.20;95.50
18753;DHT22;9505;50.882;5.350;2023-06-26T13:46:07;25.20;94.60
18753;DHT22;9505;50.882;5.350;2023-06-26T13:48:32;25.20;95.30
18753;DHT22;9505;50.882;5.350;2023-06-26T13:50:59;25.20;93.70
18753;DHT22;9505;50.882;5.350;2023-06-26T13:53:25;25.30;93.50
18753;DHT22;9505;50.882;5.350;2023-06-26T13:55:50;25.50;93.40
18753;DHT22;9505;50.882;5.350;2023-06-26T13:58:16;25.10;94.30
18753;DHT22;9505;50.882;5.350;2023-06-26T14:00:42;25.70;94.80
18753;DHT22;9505;50.882;5.350;2023-06-26T14:03:10;25.90;93.50
18753;DHT22;9505;50.882;5.350;2023-06-26T14:05:36;26.20;94.30
18753;DHT22;9505;50.882;5.350;2023-06-26T14:08:06;26.40;93.40
18753;DHT22;9505;50.882;5.350;2023-06-26T14:10:32;25.70;92.20
18753;DHT22;9505;50.882;5.350;2023-06-26T14:13:02;24.90;92.60
18753;DHT22;9505;50.882;5.350;2023-06-26T14:15:28;24.90;93.00
18753;DHT22;9505;50.882;5.350;2023-06-26T14:17:54;25.60;91.90
18753;DHT22;9505;50.882;5.350;2023-06-26T14:20:21;26.30;92.00
18753;DHT22;9505;50.882;5.350;2023-06-26T14:22:48;26.20;91.40
18753;DHT22;9505;50.882;5.350;2023-06-26T14:25:15;26.20;91.20
18753;DHT22;9505;50.882;5.350;2023-06-26T14:27:41;26.40;90.30
18753;DHT22;9505;50.882;5.350;2023-06-26T14:30:07;26.70;89.30
18753;DHT22;9505;50.882;5.350;2023-06-26T14:32:34;26.70;90.30
18753;DHT22;9505;50.882;5.350;2023-06-26T14:35:00;26.40;90.60
18753;DHT22;9505;50.882;5.350;2023-06-26T14:37:28;26.10;91.20
18753;DHT22;9505;50.882;5.350;2023-06-26T14:39:54;25.60;92.00
18753;DHT22;9505;50.882;5.350;2023-06-26T14:42:19;25.30;92.10
18753;DHT22;9505;50.882;5.350;2023-06-26T14:44:45;25.30;92.40
18753;DHT22;9505;50.882;5.350;2023-06-26T14:47:13;25.40;91.90
18753;DHT22;9505;50.882;5.350;2023-06-26T14:49:40;24.80;91.90
18753;DHT22;9505;50.882;5.350;2023-06-26T14:52:05;24.70;91.90
18753;DHT22;9505;50.882;5.350;2023-06-26T14:54:31;25.00;91.40
18753;DHT22;9505;50.882;5.350;2023-06-26T14:56:58;25.20;92.40
18753;DHT22;9505;50.882;5.350;2023-06-26T14:59:23;25.40;91.30
18753;DHT22;9505;50.882;5.350;2023-06-26T15:01:49;25.40;91.70
18753;DHT22;9505;50.882;5.350;2023-06-26T15:04:15;25.20;91.70
18753;DHT22;9505;50.882;5.350;2023-06-26T15:06:40;25.50;91.80
18753;DHT22;9505;50.882;5.350;2023-06-26T15:09:06;26.00;91.60
18753;DHT22;9505;50.882;5.350;2023-06-26T15:11:32;26.20;91.30
18753;DHT22;9505;50.882;5.350;2023-06-26T15:13:57;25.90;90.90
18753;DHT22;9505;50.882;5.350;2023-06-26T15:16:23;26.20;91.20
18753;DHT22;9505;50.882;5.350;2023-06-26T15:18:48;25.60;91.00
18753;DHT22;9505;50.882;5.350;2023-06-26T15:21:14;25.30;91.30
18753;DHT22;9505;50.882;5.350;2023-06-26T15:23:40;25.20;91.00
18753;DHT22;9505;50.882;5.350;2023-06-26T15:26:05;25.00;92.40
18753;DHT22;9505;50.882;5.350;2023-06-26T15:28:31;25.00;92.70
18753;DHT22;9505;50.882;5.350;2023-06-26T15:30:57;25.00;91.90
18753;DHT22;9505;50.882;5.350;2023-06-26T15:33:22;24.90;92.90
18753;DHT22;9505;50.882;5.350;2023-06-26T15:35:48;24.90;92.80
18753;DHT22;9505;50.882;5.350;2023-06-26T15:38:13;24.80;93.50
18753;DHT22;9505;50.882;5.350;2023-06-26T15:40:39;24.90;92.90
18753;DHT22;9505;50.882;5.350;2023-06-26T15:43:05;25.00;93.30
18753;DHT22;9505;50.882;5.350;2023-06-26T15:45:30;24.90;94.30
18753;DHT22;9505;50.882;5.350;2023-06-26T15:47:56;25.00;93.10
18753;DHT22;9505;50.882;5.350;2023-06-26T15:50:22;24.80;93.10